sensor_id;sensor_type;location;lat;lon;timestamp;P1;durP1;ratioP1;P2;durP2;ratioP2
2748;SDS011;1382;52.142;11.618;2024-02-16T00:00:45;7.53;;;6.40;;
2748;SDS011;1382;52.142;11.618;2024-02-16T00:03:12;8.67;;;5.53;;
2748;SDS011;1382;52.142;11.618;2024-02-16T00:05:51;8.57;;;5.23;;
2748;SDS011;1382;52.142;11.618;2024-02-16T00:08:18;9.20;;;5.60;;
2748;SDS011;1382;52.142;11.618;2024-02-16T00:10:45;6.87;;;5.50;;
2748;SDS011;1382;52.142;11.618;2024-02-16T00:13:11;9.80;;;6.93;;
2748;SDS011;1382;52.142;11.618;2024-02-16T00:15:38;8.80;;;6.37;;
2748;SDS011;1382;52.142;11.618;2024-02-16T00:18:05;14.10;;;5.97;;
2748;SDS011;1382;52.142;11.618;2024-02-16T00:20:32;8.90;;;5.70;;
2748;SDS011;1382;52.142;11.618;2024-02-16T00:23:00;9.47;;;6.00;;
2748;SDS011;1382;52.142;11.618;2024-02-16T00:25:27;9.77;;;6.30;;
2748;SDS011;1382;52.142;11.618;2024-02-16T00:27:56;7.10;;;5.83;;
2748;SDS011;1382;52.142;11.618;2024-02-16T00:30:23;8.07;;;6.20;;
2748;SDS011;1382;52.142;11.618;2024-02-16T00:32:50;5.93;;;4.67;;
2748;SDS011;1382;52.142;11.618;2024-02-16T00:35:19;6.93;;;5.00;;
2748;SDS011;1382;52.142;11.618;2024-02-16T00:37:49;8.47;;;6.30;;
2748;SDS011;1382;52.142;11.618;2024-02-16T00:40:17;5.87;;;5.30;;
2748;SDS011;1382;52.142;11.618;2024-02-16T00:42:44;6.10;;;5.50;;
2748;SDS011;1382;52.142;11.618;2024-02-16T00:45:11;8.47;;;6.10;;
2748;SDS011;1382;52.142;11.618;2024-02-16T00:47:40;7.20;;;6.03;;
2748;SDS011;1382;52.142;11.618;2024-02-16T00:50:07;7.63;;;5.67;;
2748;SDS011;1382;52.142;11.618;2024-02-16T00:52:34;6.30;;;5.70;;
2748;SDS011;1382;52.142;11.618;2024-02-16T00:55:01;6.73;;;5.90;;
2748;SDS011;1382;52.142;11.618;2024-02-16T00:57:33;14.00;;;6.63;;
2748;SDS011;1382;52.142;11.618;2024-02-16T01:00:00;7.03;;;6.33;;
2748;SDS011;1382;52.142;11.618;2024-02-16T01:02:27;7.77;;;6.13;;
2748;SDS011;1382;52.142;11.618;2024-02-16T01:04:55;9.33;;;5.83;;
2748;SDS011;1382;52.142;11.618;2024-02-16T01:07:24;10.30;;;7.00;;
2748;SDS011;1382;52.142;11.618;2024-02-16T01:09:51;7.80;;;5.67;;
2748;SDS011;1382;52.142;11.618;2024-02-16T01:12:19;10.87;;;6.63;;
2748;SDS011;1382;52.142;11.618;2024-02-16T01:14:48;9.00;;;6.73;;
2748;SDS011;1382;52.142;11.618;2024-02-16T01:17:15;6.43;;;5.00;;
2748;SDS011;1382;52.142;11.618;2024-02-16T01:19:42;7.60;;;5.00;;
2748;SDS011;1382;52.142;11.618;2024-02-16T01:22:08;9.13;;;6.47;;
2748;SDS011;1382;52.142;11.618;2024-02-16T01:24:35;7.73;;;6.10;;
2748;SDS011;1382;52.142;11.618;2024-02-16T01:27:02;10.37;;;6.97;;
2748;SDS011;1382;52.142;11.618;2024-02-16T01:29:29;7.03;;;5.70;;
2748;SDS011;1382;52.142;11.618;2024-02-16T01:31:57;9.67;;;5.70;;
2748;SDS011;1382;52.142;11.618;2024-02-16T01:34:25;8.30;;;6.53;;
2748;SDS011;1382;52.142;11.618;2024-02-16T01:36:52;6.63;;;5.70;;
2748;SDS011;1382;52.142;11.618;2024-02-16T01:39:19;7.20;;;5.07;;
2748;SDS011;1382;52.142;11.618;2024-02-16T01:41:47;9.40;;;6.43;;
2748;SDS011;1382;52.142;11.618;2024-02-16T01:44:14;7.43;;;6.40;;
2748;SDS011;1382;52.142;11.618;2024-02-16T01:46:41;15.23;;;6.50;;
2748;SDS011;1382;52.142;11.618;2024-02-16T01:49:09;12.50;;;6.73;;
2748;SDS011;1382;52.142;11.618;2024-02-16T01:51:37;11.53;;;7.40;;
2748;SDS011;1382;52.142;11.618;2024-02-16T01:54:04;9.73;;;5.93;;
2748;SDS011;1382;52.142;11.618;2024-02-16T01:56:31;7.40;;;5.33;;
2748;SDS011;1382;52.142;11.618;2024-02-16T01:58:58;11.03;;;6.50;;
2748;SDS011;1382;52.142;11.618;2024-02-16T02:01:25;9.60;;;5.90;;
2748;SDS011;1382;52.142;11.618;2024-02-16T02:03:52;11.43;;;6.50;;
2748;SDS011;1382;52.142;11.618;2024-02-16T02:06:21;10.17;;;6.40;;
2748;SDS011;1382;52.142;11.618;2024-02-16T02:08:50;5.23;;;4.73;;
2748;SDS011;1382;52.142;11.618;2024-02-16T02:11:17;5.53;;;4.40;;
2748;SDS011;1382;52.142;11.618;2024-02-16T02:13:44;8.13;;;5.63;;
2748;SDS011;1382;52.142;11.618;2024-02-16T02:16:10;15.20;;;5.87;;
2748;SDS011;1382;52.142;11.618;2024-02-16T02:18:38;6.43;;;5.73;;
2748;SDS011;1382;52.142;11.618;2024-02-16T02:21:05;9.23;;;6.20;;
2748;SDS011;1382;52.142;11.618;2024-02-16T02:23:33;9.40;;;5.90;;
2748;SDS011;1382;52.142;11.618;2024-02-16T02:26:00;8.47;;;6.10;;
2748;SDS011;1382;52.142;11.618;2024-02-16T02:28:27;6.70;;;5.37;;
2748;SDS011;1382;52.142;11.618;2024-02-16T02:30:54;7.60;;;6.17;;
2748;SDS011;1382;52.142;11.618;2024-02-16T02:33:21;10.00;;;5.17;;
2748;SDS011;1382;52.142;11.618;2024-02-16T02:35:48;7.47;;;5.30;;
2748;SDS011;1382;52.142;11.618;2024-02-16T02:38:15;6.27;;;4.70;;
2748;SDS011;1382;52.142;11.618;2024-02-16T02:40:45;10.47;;;6.50;;
2748;SDS011;1382;52.142;11.618;2024-02-16T02:43:15;7.83;;;5.00;;
2748;SDS011;1382;52.142;11.618;2024-02-16T02:45:45;7.00;;;5.10;;
2748;SDS011;1382;52.142;11.618;2024-02-16T02:48:14;6.90;;;5.20;;
2748;SDS011;1382;52.142;11.618;2024-02-16T02:50:41;8.30;;;5.13;;
2748;SDS011;1382;52.142;11.618;2024-02-16T02:53:08;8.20;;;5.90;;
2748;SDS011;1382;52.142;11.618;2024-02-16T02:55:35;9.23;;;5.83;;
2748;SDS011;1382;52.142;11.618;2024-02-16T02:58:03;6.90;;;5.63;;
2748;SDS011;1382;52.142;11.618;2024-02-16T03:00:30;12.33;;;5.13;;
2748;SDS011;1382;52.142;11.618;2024-02-16T03:02:57;6.87;;;4.87;;
2748;SDS011;1382;52.142;11.618;2024-02-16T03:05:24;6.17;;;5.50;;
2748;SDS011;1382;52.142;11.618;2024-02-16T03:07:50;7.20;;;4.40;;
2748;SDS011;1382;52.142;11.618;2024-02-16T03:10:17;9.00;;;5.07;;
2748;SDS011;1382;52.142;11.618;2024-02-16T03:12:44;7.70;;;6.60;;
2748;SDS011;1382;52.142;11.618;2024-02-16T03:15:12;7.67;;;4.83;;
2748;SDS011;1382;52.142;11.618;2024-02-16T03:17:39;6.47;;;5.87;;
2748;SDS011;1382;52.142;11.618;2024-02-16T03:20:07;6.40;;;5.80;;
2748;SDS011;1382;52.142;11.618;2024-02-16T03:22:34;8.00;;;5.50;;
2748;SDS011;1382;52.142;11.618;2024-02-16T03:25:01;4.97;;;4.33;;
2748;SDS011;1382;52.142;11.618;2024-02-16T03:27:28;7.43;;;5.60;;
2748;SDS011;1382;52.142;11.618;2024-02-16T03:29:55;9.37;;;5.30;;
2748;SDS011;1382;52.142;11.618;2024-02-16T03:32:23;7.03;;;4.50;;
2748;SDS011;1382;52.142;11.618;2024-02-16T03:34:50;7.43;;;5.40;;
2748;SDS011;1382;52.142;11.618;2024-02-16T03:37:17;9.83;;;5.67;;
2748;SDS011;1382;52.142;11.618;2024-02-16T03:39:43;9.70;;;5.80;;
2748;SDS011;1382;52.142;11.618;2024-02-16T03:42:10;5.97;;;4.70;;
2748;SDS011;1382;52.142;11.618;2024-02-16T03:44:37;5.97;;;4.60;;
2748;SDS011;1382;52.142;11.618;2024-02-16T03:47:04;10.73;;;5.30;;
2748;SDS011;1382;52.142;11.618;2024-02-16T03:49:32;9.63;;;5.50;;
2748;SDS011;1382;52.142;11.618;2024-02-16T03:51:59;6.20;;;4.60;;
2748;SDS011;1382;52.142;11.618;2024-02-16T03:54:26;8.80;;;5.57;;
2748;SDS011;1382;52.142;11.618;2024-02-16T03:56:53;9.33;;;6.20;;
2748;SDS011;1382;52.142;11.618;2024-02-16T03:59:20;8.37;;;4.83;;
2748;SDS011;1382;52.142;11.618;2024-02-16T04:01:46;6.87;;;4.97;;
2748;SDS011;1382;52.142;11.618;2024-02-16T04:04:13;9.00;;;5.43;;
2748;SDS011;1382;52.142;11.618;2024-02-16T04:06:41;9.80;;;5.70;;
2748;SDS011;1382;52.142;11.618;2024-02-16T04:09:08;7.57;;;5.20;;
2748;SDS011;1382;52.142;11.618;2024-02-16T04:11:36;12.00;;;6.10;;
2748;SDS011;1382;52.142;11.618;2024-02-16T04:14:03;9.23;;;4.90;;
2748;SDS011;1382;52.142;11.618;2024-02-16T04:16:30;6.83;;;6.00;;
2748;SDS011;1382;52.142;11.618;2024-02-16T04:18:56;7.67;;;5.20;;
2748;SDS011;1382;52.142;11.618;2024-02-16T04:21:24;5.70;;;4.47;;
2748;SDS011;1382;52.142;11.618;2024-02-16T04:23:52;5.70;;;5.13;;
2748;SDS011;1382;52.142;11.618;2024-02-16T04:26:18;7.93;;;4.47;;
2748;SDS011;1382;52.142;11.618;2024-02-16T04:28:45;5.50;;;4.97;;
2748;SDS011;1382;52.142;11.618;2024-02-16T04:31:12;8.20;;;5.40;;
2748;SDS011;1382;52.142;11.618;2024-02-16T04:33:39;5.63;;;4.87;;
2748;SDS011;1382;52.142;11.618;2024-02-16T04:36:06;6.50;;;5.20;;
2748;SDS011;1382;52.142;11.618;2024-02-16T04:38:34;6.67;;;4.10;;
2748;SDS011;1382;52.142;11.618;2024-02-16T04:41:04;6.50;;;5.10;;
2748;SDS011;1382;52.142;11.618;2024-02-16T04:43:31;6.13;;;4.80;;
2748;SDS011;1382;52.142;11.618;2024-02-16T04:45:58;7.87;;;5.93;;
2748;SDS011;1382;52.142;11.618;2024-02-16T04:48:24;12.30;;;5.40;;
2748;SDS011;1382;52.142;11.618;2024-02-16T04:50:51;5.63;;;5.10;;
2748;SDS011;1382;52.142;11.618;2024-02-16T04:53:18;6.90;;;4.70;;
2748;SDS011;1382;52.142;11.618;2024-02-16T04:55:45;8.07;;;4.97;;
2748;SDS011;1382;52.142;11.618;2024-02-16T04:58:13;6.33;;;4.50;;
2748;SDS011;1382;52.142;11.618;2024-02-16T05:00:40;5.80;;;5.17;;
2748;SDS011;1382;52.142;11.618;2024-02-16T05:03:07;12.80;;;4.90;;
2748;SDS011;1382;52.142;11.618;2024-02-16T05:05:34;8.93;;;4.30;;
2748;SDS011;1382;52.142;11.618;2024-02-16T05:08:01;8.40;;;4.90;;
2748;SDS011;1382;52.142;11.618;2024-02-16T05:10:27;10.73;;;5.00;;
2748;SDS011;1382;52.142;11.618;2024-02-16T05:12:54;4.23;;;3.90;;
2748;SDS011;1382;52.142;11.618;2024-02-16T05:15:23;9.70;;;5.73;;
2748;SDS011;1382;52.142;11.618;2024-02-16T05:17:50;5.43;;;4.33;;
2748;SDS011;1382;52.142;11.618;2024-02-16T05:20:18;10.23;;;5.20;;
2748;SDS011;1382;52.142;11.618;2024-02-16T05:22:45;6.10;;;4.80;;
2748;SDS011;1382;52.142;11.618;2024-02-16T05:25:12;5.77;;;4.53;;
2748;SDS011;1382;52.142;11.618;2024-02-16T05:27:39;7.90;;;5.83;;
2748;SDS011;1382;52.142;11.618;2024-02-16T05:30:08;6.33;;;4.73;;
2748;SDS011;1382;52.142;11.618;2024-02-16T05:32:38;6.77;;;5.67;;
2748;SDS011;1382;52.142;11.618;2024-02-16T05:35:05;7.97;;;4.40;;
2748;SDS011;1382;52.142;11.618;2024-02-16T05:37:33;7.23;;;5.67;;
2748;SDS011;1382;52.142;11.618;2024-02-16T05:40:00;6.07;;;5.17;;
2748;SDS011;1382;52.142;11.618;2024-02-16T05:42:27;6.30;;;5.00;;
2748;SDS011;1382;52.142;11.618;2024-02-16T05:44:54;5.43;;;4.40;;
2748;SDS011;1382;52.142;11.618;2024-02-16T05:47:21;6.53;;;5.33;;
2748;SDS011;1382;52.142;11.618;2024-02-16T05:49:49;9.83;;;4.97;;
2748;SDS011;1382;52.142;11.618;2024-02-16T05:52:19;8.50;;;4.77;;
2748;SDS011;1382;52.142;11.618;2024-02-16T05:54:51;10.10;;;5.50;;
2748;SDS011;1382;52.142;11.618;2024-02-16T05:57:18;6.27;;;4.40;;
2748;SDS011;1382;52.142;11.618;2024-02-16T05:59:45;7.23;;;4.90;;
2748;SDS011;1382;52.142;11.618;2024-02-16T06:02:16;6.97;;;5.30;;
2748;SDS011;1382;52.142;11.618;2024-02-16T06:04:45;8.10;;;5.80;;
2748;SDS011;1382;52.142;11.618;2024-02-16T06:07:13;6.40;;;4.23;;
2748;SDS011;1382;52.142;11.618;2024-02-16T06:09:40;12.10;;;5.73;;
2748;SDS011;1382;52.142;11.618;2024-02-16T06:12:07;5.30;;;4.80;;
2748;SDS011;1382;52.142;11.618;2024-02-16T06:14:35;6.20;;;5.17;;
2748;SDS011;1382;52.142;11.618;2024-02-16T06:17:02;4.90;;;4.10;;
2748;SDS011;1382;52.142;11.618;2024-02-16T06:19:29;9.07;;;5.60;;
2748;SDS011;1382;52.142;11.618;2024-02-16T06:22:05;8.73;;;4.13;;
2748;SDS011;1382;52.142;11.618;2024-02-16T06:24:55;6.80;;;5.40;;
2748;SDS011;1382;52.142;11.618;2024-02-16T06:27:27;10.73;;;5.40;;
2748;SDS011;1382;52.142;11.618;2024-02-16T06:30:11;7.43;;;5.80;;
2748;SDS011;1382;52.142;11.618;2024-02-16T06:32:42;6.60;;;4.50;;
2748;SDS011;1382;52.142;11.618;2024-02-16T06:35:11;10.00;;;5.33;;
2748;SDS011;1382;52.142;11.618;2024-02-16T06:37:38;8.53;;;5.00;;
2748;SDS011;1382;52.142;11.618;2024-02-16T06:40:07;7.27;;;5.30;;
2748;SDS011;1382;52.142;11.618;2024-02-16T06:42:34;8.30;;;5.80;;
2748;SDS011;1382;52.142;11.618;2024-02-16T06:45:01;5.60;;;4.47;;
2748;SDS011;1382;52.142;11.618;2024-02-16T06:47:28;9.87;;;5.33;;
2748;SDS011;1382;52.142;11.618;2024-02-16T06:49:55;5.87;;;5.27;;
2748;SDS011;1382;52.142;11.618;2024-02-16T06:52:22;13.03;;;5.33;;
2748;SDS011;1382;52.142;11.618;2024-02-16T06:54:49;8.13;;;5.00;;
2748;SDS011;1382;52.142;11.618;2024-02-16T06:57:17;5.33;;;4.03;;
2748;SDS011;1382;52.142;11.618;2024-02-16T06:59:44;9.77;;;5.40;;
2748;SDS011;1382;52.142;11.618;2024-02-16T07:02:11;7.30;;;5.10;;
2748;SDS011;1382;52.142;11.618;2024-02-16T07:04:39;7.07;;;4.73;;
2748;SDS011;1382;52.142;11.618;2024-02-16T07:07:06;6.40;;;4.70;;
2748;SDS011;1382;52.142;11.618;2024-02-16T07:09:33;5.17;;;3.90;;
2748;SDS011;1382;52.142;11.618;2024-02-16T07:12:00;7.43;;;5.03;;
2748;SDS011;1382;52.142;11.618;2024-02-16T07:14:28;12.10;;;6.00;;
2748;SDS011;1382;52.142;11.618;2024-02-16T07:16:55;7.67;;;4.60;;
2748;SDS011;1382;52.142;11.618;2024-02-16T07:19:22;7.87;;;6.03;;
2748;SDS011;1382;52.142;11.618;2024-02-16T07:21:49;6.40;;;3.90;;
2748;SDS011;1382;52.142;11.618;2024-02-16T07:24:15;8.00;;;4.70;;
2748;SDS011;1382;52.142;11.618;2024-02-16T07:26:42;7.20;;;4.93;;
2748;SDS011;1382;52.142;11.618;2024-02-16T07:29:09;8.33;;;5.70;;
2748;SDS011;1382;52.142;11.618;2024-02-16T07:31:37;10.33;;;5.13;;
2748;SDS011;1382;52.142;11.618;2024-02-16T07:34:04;5.47;;;4.43;;
2748;SDS011;1382;52.142;11.618;2024-02-16T07:36:31;7.77;;;4.60;;
2748;SDS011;1382;52.142;11.618;2024-02-16T07:39:00;9.50;;;5.10;;
2748;SDS011;1382;52.142;11.618;2024-02-16T07:41:27;6.50;;;4.57;;
2748;SDS011;1382;52.142;11.618;2024-02-16T07:43:54;6.10;;;4.47;;
2748;SDS011;1382;52.142;11.618;2024-02-16T07:46:20;11.50;;;4.30;;
2748;SDS011;1382;52.142;11.618;2024-02-16T07:48:50;5.93;;;4.97;;
2748;SDS011;1382;52.142;11.618;2024-02-16T07:51:17;6.20;;;4.67;;
2748;SDS011;1382;52.142;11.618;2024-02-16T07:53:52;10.13;;;5.03;;
2748;SDS011;1382;52.142;11.618;2024-02-16T07:56:19;5.57;;;4.30;;
2748;SDS011;1382;52.142;11.618;2024-02-16T07:58:46;8.97;;;5.07;;
2748;SDS011;1382;52.142;11.618;2024-02-16T08:01:13;9.93;;;4.70;;
2748;SDS011;1382;52.142;11.618;2024-02-16T08:03:40;5.10;;;4.60;;
2748;SDS011;1382;52.142;11.618;2024-02-16T08:06:08;5.90;;;4.63;;
2748;SDS011;1382;52.142;11.618;2024-02-16T08:08:35;9.67;;;4.53;;
2748;SDS011;1382;52.142;11.618;2024-02-16T08:11:02;7.30;;;4.20;;
2748;SDS011;1382;52.142;11.618;2024-02-16T08:13:29;4.50;;;3.97;;
2748;SDS011;1382;52.142;11.618;2024-02-16T08:15:56;5.57;;;4.70;;
2748;SDS011;1382;52.142;11.618;2024-02-16T08:18:23;10.23;;;4.87;;
2748;SDS011;1382;52.142;11.618;2024-02-16T08:20:50;6.80;;;4.00;;
2748;SDS011;1382;52.142;11.618;2024-02-16T08:23:18;8.93;;;5.27;;
2748;SDS011;1382;52.142;11.618;2024-02-16T08:25:45;6.77;;;4.00;;
2748;SDS011;1382;52.142;11.618;2024-02-16T08:28:12;9.60;;;4.43;;
2748;SDS011;1382;52.142;11.618;2024-02-16T08:30:38;6.87;;;4.17;;
2748;SDS011;1382;52.142;11.618;2024-02-16T08:33:05;7.73;;;4.70;;
2748;SDS011;1382;52.142;11.618;2024-02-16T08:35:32;6.13;;;4.07;;
2748;SDS011;1382;52.142;11.618;2024-02-16T08:37:59;6.50;;;3.60;;
2748;SDS011;1382;52.142;11.618;2024-02-16T08:40:27;5.43;;;4.17;;
2748;SDS011;1382;52.142;11.618;2024-02-16T08:42:54;4.90;;;4.40;;
2748;SDS011;1382;52.142;11.618;2024-02-16T08:45:23;5.17;;;4.67;;
2748;SDS011;1382;52.142;11.618;2024-02-16T08:47:51;13.00;;;4.83;;
2748;SDS011;1382;52.142;11.618;2024-02-16T08:50:18;6.73;;;4.10;;
2748;SDS011;1382;52.142;11.618;2024-02-16T08:52:45;13.37;;;4.57;;
2748;SDS011;1382;52.142;11.618;2024-02-16T08:55:12;7.30;;;4.20;;
2748;SDS011;1382;52.142;11.618;2024-02-16T08:57:40;5.43;;;3.13;;
2748;SDS011;1382;52.142;11.618;2024-02-16T09:00:08;11.70;;;4.43;;
2748;SDS011;1382;52.142;11.618;2024-02-16T09:02:35;4.37;;;3.63;;
2748;SDS011;1382;52.142;11.618;2024-02-16T09:05:02;7.47;;;4.20;;
2748;SDS011;1382;52.142;11.618;2024-02-16T09:07:30;6.10;;;4.13;;
2748;SDS011;1382;52.142;11.618;2024-02-16T09:09:57;3.43;;;3.13;;
2748;SDS011;1382;52.142;11.618;2024-02-16T09:12:23;4.57;;;3.37;;
2748;SDS011;1382;52.142;11.618;2024-02-16T09:14:52;4.60;;;3.60;;
2748;SDS011;1382;52.142;11.618;2024-02-16T09:17:18;4.50;;;3.50;;
2748;SDS011;1382;52.142;11.618;2024-02-16T09:19:45;5.27;;;3.60;;
2748;SDS011;1382;52.142;11.618;2024-02-16T09:22:12;4.23;;;3.33;;
2748;SDS011;1382;52.142;11.618;2024-02-16T09:24:39;8.20;;;4.07;;
2748;SDS011;1382;52.142;11.618;2024-02-16T09:27:06;7.10;;;4.50;;
2748;SDS011;1382;52.142;11.618;2024-02-16T09:29:33;5.33;;;3.20;;
2748;SDS011;1382;52.142;11.618;2024-02-16T09:32:01;8.60;;;3.10;;
2748;SDS011;1382;52.142;11.618;2024-02-16T09:34:29;4.13;;;3.70;;
2748;SDS011;1382;52.142;11.618;2024-02-16T09:36:56;3.13;;;2.77;;
2748;SDS011;1382;52.142;11.618;2024-02-16T09:39:23;10.10;;;3.93;;
2748;SDS011;1382;52.142;11.618;2024-02-16T09:41:50;5.10;;;3.43;;
2748;SDS011;1382;52.142;11.618;2024-02-16T09:44:17;4.20;;;3.63;;
2748;SDS011;1382;52.142;11.618;2024-02-16T09:46:48;7.20;;;3.43;;
2748;SDS011;1382;52.142;11.618;2024-02-16T09:49:20;12.63;;;3.60;;
2748;SDS011;1382;52.142;11.618;2024-02-16T09:52:01;7.57;;;3.23;;
2748;SDS011;1382;52.142;11.618;2024-02-16T09:54:29;7.10;;;3.53;;
2748;SDS011;1382;52.142;11.618;2024-02-16T09:56:58;5.57;;;3.90;;
2748;SDS011;1382;52.142;11.618;2024-02-16T09:59:25;3.57;;;3.27;;
2748;SDS011;1382;52.142;11.618;2024-02-16T10:01:58;8.10;;;4.13;;
2748;SDS011;1382;52.142;11.618;2024-02-16T10:04:27;4.20;;;3.43;;
2748;SDS011;1382;52.142;11.618;2024-02-16T10:06:57;3.90;;;3.47;;
2748;SDS011;1382;52.142;11.618;2024-02-16T10:09:24;5.97;;;4.00;;
2748;SDS011;1382;52.142;11.618;2024-02-16T10:11:51;5.93;;;3.70;;
2748;SDS011;1382;52.142;11.618;2024-02-16T10:14:18;5.00;;;3.47;;
2748;SDS011;1382;52.142;11.618;2024-02-16T10:16:45;3.83;;;3.53;;
2748;SDS011;1382;52.142;11.618;2024-02-16T10:19:12;6.23;;;4.33;;
2748;SDS011;1382;52.142;11.618;2024-02-16T10:21:44;4.60;;;3.70;;
2748;SDS011;1382;52.142;11.618;2024-02-16T10:24:14;5.50;;;4.03;;
2748;SDS011;1382;52.142;11.618;2024-02-16T10:27:01;4.63;;;3.60;;
2748;SDS011;1382;52.142;11.618;2024-02-16T10:29:53;4.87;;;3.60;;
2748;SDS011;1382;52.142;11.618;2024-02-16T10:32:50;7.30;;;3.37;;
2748;SDS011;1382;52.142;11.618;2024-02-16T10:35:17;3.97;;;3.23;;
2748;SDS011;1382;52.142;11.618;2024-02-16T10:37:46;4.70;;;2.93;;
2748;SDS011;1382;52.142;11.618;2024-02-16T10:40:13;3.60;;;2.93;;
2748;SDS011;1382;52.142;11.618;2024-02-16T10:42:42;7.40;;;3.03;;
2748;SDS011;1382;52.142;11.618;2024-02-16T10:45:11;5.93;;;2.93;;
2748;SDS011;1382;52.142;11.618;2024-02-16T10:47:38;7.33;;;3.20;;
2748;SDS011;1382;52.142;11.618;2024-02-16T10:50:06;4.27;;;2.57;;
2748;SDS011;1382;52.142;11.618;2024-02-16T10:52:34;3.20;;;2.30;;
2748;SDS011;1382;52.142;11.618;2024-02-16T10:55:05;6.20;;;2.80;;
2748;SDS011;1382;52.142;11.618;2024-02-16T10:57:35;6.70;;;3.33;;
2748;SDS011;1382;52.142;11.618;2024-02-16T11:00:07;5.97;;;2.80;;
2748;SDS011;1382;52.142;11.618;2024-02-16T11:05:18;16.47;;;2.60;;
2748;SDS011;1382;52.142;11.618;2024-02-16T11:07:44;9.90;;;2.97;;
2748;SDS011;1382;52.142;11.618;2024-02-16T11:10:13;6.60;;;2.43;;
2748;SDS011;1382;52.142;11.618;2024-02-16T11:12:42;10.27;;;3.30;;
2748;SDS011;1382;52.142;11.618;2024-02-16T11:15:11;5.10;;;3.30;;
2748;SDS011;1382;52.142;11.618;2024-02-16T11:17:40;5.07;;;2.73;;
2748;SDS011;1382;52.142;11.618;2024-02-16T11:20:07;6.00;;;2.47;;
2748;SDS011;1382;52.142;11.618;2024-02-16T11:22:43;4.17;;;2.67;;
2748;SDS011;1382;52.142;11.618;2024-02-16T11:25:19;6.17;;;2.50;;
2748;SDS011;1382;52.142;11.618;2024-02-16T11:28:01;5.03;;;2.90;;
2748;SDS011;1382;52.142;11.618;2024-02-16T11:31:04;5.80;;;2.07;;
2748;SDS011;1382;52.142;11.618;2024-02-16T11:33:35;5.30;;;3.20;;
2748;SDS011;1382;52.142;11.618;2024-02-16T11:36:05;6.20;;;2.90;;
2748;SDS011;1382;52.142;11.618;2024-02-16T11:38:51;5.30;;;2.47;;
2748;SDS011;1382;52.142;11.618;2024-02-16T11:41:35;4.80;;;2.77;;
2748;SDS011;1382;52.142;11.618;2024-02-16T11:44:12;5.27;;;2.87;;
2748;SDS011;1382;52.142;11.618;2024-02-16T11:46:47;6.23;;;2.67;;
2748;SDS011;1382;52.142;11.618;2024-02-16T11:49:14;4.33;;;2.77;;
2748;SDS011;1382;52.142;11.618;2024-02-16T11:51:48;4.10;;;2.37;;
2748;SDS011;1382;52.142;11.618;2024-02-16T11:54:15;5.37;;;2.77;;
2748;SDS011;1382;52.142;11.618;2024-02-16T11:56:45;7.63;;;3.40;;
2748;SDS011;1382;52.142;11.618;2024-02-16T11:59:19;3.20;;;2.47;;
2748;SDS011;1382;52.142;11.618;2024-02-16T12:01:55;5.80;;;2.80;;
2748;SDS011;1382;52.142;11.618;2024-02-16T12:04:24;7.60;;;3.77;;
2748;SDS011;1382;52.142;11.618;2024-02-16T12:07:01;7.77;;;2.70;;
2748;SDS011;1382;52.142;11.618;2024-02-16T12:09:41;8.40;;;3.00;;
2748;SDS011;1382;52.142;11.618;2024-02-16T12:12:24;2.40;;;2.20;;
2748;SDS011;1382;52.142;11.618;2024-02-16T12:14:52;5.53;;;2.93;;
2748;SDS011;1382;52.142;11.618;2024-02-16T12:17:22;3.20;;;2.50;;
2748;SDS011;1382;52.142;11.618;2024-02-16T12:19:57;7.17;;;2.53;;
2748;SDS011;1382;52.142;11.618;2024-02-16T12:22:25;7.67;;;2.90;;
2748;SDS011;1382;52.142;11.618;2024-02-16T12:24:54;5.63;;;2.90;;
2748;SDS011;1382;52.142;11.618;2024-02-16T12:31:20;6.70;;;2.43;;
2748;SDS011;1382;52.142;11.618;2024-02-16T12:34:06;4.97;;;2.60;;
2748;SDS011;1382;52.142;11.618;2024-02-16T12:36:40;5.03;;;2.20;;
2748;SDS011;1382;52.142;11.618;2024-02-16T12:39:30;5.30;;;2.53;;
2748;SDS011;1382;52.142;11.618;2024-02-16T12:42:16;6.03;;;2.33;;
2748;SDS011;1382;52.142;11.618;2024-02-16T12:45:03;3.17;;;2.40;;
2748;SDS011;1382;52.142;11.618;2024-02-16T12:48:06;7.13;;;2.43;;
2748;SDS011;1382;52.142;11.618;2024-02-16T12:51:02;11.10;;;2.90;;
2748;SDS011;1382;52.142;11.618;2024-02-16T12:53:56;4.03;;;2.67;;
2748;SDS011;1382;52.142;11.618;2024-02-16T12:56:49;4.20;;;2.47;;
2748;SDS011;1382;52.142;11.618;2024-02-16T12:59:23;3.47;;;2.20;;
2748;SDS011;1382;52.142;11.618;2024-02-16T13:05:46;7.20;;;3.20;;
2748;SDS011;1382;52.142;11.618;2024-02-16T13:08:25;5.40;;;3.03;;
2748;SDS011;1382;52.142;11.618;2024-02-16T13:11:32;4.30;;;2.70;;
2748;SDS011;1382;52.142;11.618;2024-02-16T13:14:08;2.80;;;2.07;;
2748;SDS011;1382;52.142;11.618;2024-02-16T13:17:03;5.77;;;3.40;;
2748;SDS011;1382;52.142;11.618;2024-02-16T13:19:44;4.33;;;2.47;;
2748;SDS011;1382;52.142;11.618;2024-02-16T13:25:25;3.10;;;2.10;;
2748;SDS011;1382;52.142;11.618;2024-02-16T13:27:52;4.57;;;2.00;;
2748;SDS011;1382;52.142;11.618;2024-02-16T13:30:29;4.50;;;2.73;;
2748;SDS011;1382;52.142;11.618;2024-02-16T13:33:02;4.03;;;2.90;;
2748;SDS011;1382;52.142;11.618;2024-02-16T13:35:39;2.93;;;2.40;;
2748;SDS011;1382;52.142;11.618;2024-02-16T13:38:17;3.63;;;2.10;;
2748;SDS011;1382;52.142;11.618;2024-02-16T13:40:44;3.40;;;2.97;;
2748;SDS011;1382;52.142;11.618;2024-02-16T13:43:15;3.53;;;2.30;;
2748;SDS011;1382;52.142;11.618;2024-02-16T13:45:49;3.67;;;2.63;;
2748;SDS011;1382;52.142;11.618;2024-02-16T13:48:33;3.83;;;2.60;;
2748;SDS011;1382;52.142;11.618;2024-02-16T13:51:01;3.03;;;2.27;;
2748;SDS011;1382;52.142;11.618;2024-02-16T13:53:28;8.37;;;2.43;;
2748;SDS011;1382;52.142;11.618;2024-02-16T13:55:55;7.10;;;2.60;;
2748;SDS011;1382;52.142;11.618;2024-02-16T13:58:22;2.83;;;2.40;;
2748;SDS011;1382;52.142;11.618;2024-02-16T14:00:49;3.20;;;2.87;;
2748;SDS011;1382;52.142;11.618;2024-02-16T14:03:16;5.17;;;2.50;;
2748;SDS011;1382;52.142;11.618;2024-02-16T14:05:44;5.70;;;3.40;;
2748;SDS011;1382;52.142;11.618;2024-02-16T14:08:13;2.27;;;2.03;;
2748;SDS011;1382;52.142;11.618;2024-02-16T14:10:39;4.03;;;3.07;;
2748;SDS011;1382;52.142;11.618;2024-02-16T14:13:06;3.63;;;2.90;;
2748;SDS011;1382;52.142;11.618;2024-02-16T14:15:33;3.43;;;2.77;;
2748;SDS011;1382;52.142;11.618;2024-02-16T14:18:00;5.03;;;2.67;;
2748;SDS011;1382;52.142;11.618;2024-02-16T14:20:41;3.43;;;2.73;;
2748;SDS011;1382;52.142;11.618;2024-02-16T14:23:08;10.20;;;3.10;;
2748;SDS011;1382;52.142;11.618;2024-02-16T14:25:36;8.80;;;2.93;;
2748;SDS011;1382;52.142;11.618;2024-02-16T14:28:04;3.53;;;2.50;;
2748;SDS011;1382;52.142;11.618;2024-02-16T14:30:32;3.80;;;2.10;;
2748;SDS011;1382;52.142;11.618;2024-02-16T14:32:59;4.43;;;2.43;;
2748;SDS011;1382;52.142;11.618;2024-02-16T14:35:27;5.90;;;2.90;;
2748;SDS011;1382;52.142;11.618;2024-02-16T14:38:06;8.43;;;2.80;;
2748;SDS011;1382;52.142;11.618;2024-02-16T14:40:38;4.50;;;2.80;;
2748;SDS011;1382;52.142;11.618;2024-02-16T14:43:08;3.90;;;2.67;;
2748;SDS011;1382;52.142;11.618;2024-02-16T14:45:40;3.23;;;2.40;;
2748;SDS011;1382;52.142;11.618;2024-02-16T14:48:15;6.37;;;2.73;;
2748;SDS011;1382;52.142;11.618;2024-02-16T14:50:42;6.73;;;3.10;;
2748;SDS011;1382;52.142;11.618;2024-02-16T14:53:09;5.13;;;3.00;;
2748;SDS011;1382;52.142;11.618;2024-02-16T14:55:37;3.57;;;3.17;;
2748;SDS011;1382;52.142;11.618;2024-02-16T14:58:06;6.10;;;2.60;;
2748;SDS011;1382;52.142;11.618;2024-02-16T15:00:34;5.63;;;3.80;;
2748;SDS011;1382;52.142;11.618;2024-02-16T15:03:01;4.17;;;2.90;;
2748;SDS011;1382;52.142;11.618;2024-02-16T15:05:27;7.43;;;3.13;;
2748;SDS011;1382;52.142;11.618;2024-02-16T15:07:54;8.83;;;3.10;;
2748;SDS011;1382;52.142;11.618;2024-02-16T15:10:22;4.83;;;3.00;;
2748;SDS011;1382;52.142;11.618;2024-02-16T15:12:50;4.00;;;2.47;;
2748;SDS011;1382;52.142;11.618;2024-02-16T15:15:20;4.17;;;3.10;;
2748;SDS011;1382;52.142;11.618;2024-02-16T15:17:47;5.43;;;2.90;;
2748;SDS011;1382;52.142;11.618;2024-02-16T15:20:14;5.60;;;3.07;;
2748;SDS011;1382;52.142;11.618;2024-02-16T15:22:41;6.90;;;3.47;;
2748;SDS011;1382;52.142;11.618;2024-02-16T15:25:18;7.67;;;3.10;;
2748;SDS011;1382;52.142;11.618;2024-02-16T15:27:49;5.13;;;3.57;;